HSYE weather

Yei Airport
Yei, Central Equatoria State, South Sudan

Public forecast

Using degrees Celsius for public forecast. Weather courtesy of forecast.io.

METAR (pilot weather report)

Report is more than 6 hours old.

Closest report is Arua Airport, 65.8 nm (121.9 km) S. Retrieved 2013/09/02 12:00 UTC (6 years ago):

HUAR 021200Z 27004KT 9999 BKN020 FEW023CB SCT300 27/18

TAF (pilot weather forecast)

Forecast is more than 6 hours old.

Closest forecast is Juba International Airport, 68.7 nm (127.2 km) NE. Retrieved 2019/03/25 12:18 UTC (7 hours ago):

TAF TAF HSSJ 251000Z 2512/2618 18004KT 9999 BKN040 SCT090 PROB30 TEMPO 2512/2518 VRB03KT 6000 TSRA FEW040CB PROB30 TEMPO 2606/2612 VRB10G20KT 4000 TSRA FEW030CB